Time;durP1;ratioP1;P1;durP2;ratioP2;P2;SDS_P1;SDS_P2;PMS_P1;PMS_P2;Temp;Humidity;BMP_temperature;BMP_pressure;BME280_temperature;BME280_humidity;BME280_pressure;Samples;Min_cycle;Max_cycle;Signal;HPM_P1;HPM_P2
2022/06/04 00:02:05;;;;;;;5.60;4.80;;;;;;;17.31;57.34;98994.21;105236;1271;74302;-74
2022/06/04 00:04:32;;;;;;;8.30;5.30;;;;;;;17.29;57.49;98991.21;105265;1271;62175;-74
2022/06/04 00:06:58;;;;;;;5.60;5.10;;;;;;;17.25;57.60;98996.55;105208;1271;62041;-74
2022/06/04 00:09:28;;;;;;;7.80;5.50;;;;;;;17.23;57.69;98999.85;105206;1271;76482;-74
2022/06/04 00:17:26;;;;;;;5.10;4.70;;;;;;;17.14;57.82;98997.45;105232;1271;62076;-75
2022/06/04 00:19:53;;;;;;;5.90;5.10;;;;;;;17.10;58.18;98990.64;105242;1271;62395;-74
2022/06/04 00:22:20;;;;;;;6.80;4.90;;;;;;;17.07;58.26;98992.87;105220;1271;77125;-74
2022/06/04 00:24:47;;;;;;;7.60;5.90;;;;;;;17.04;58.47;98992.09;105237;1271;70349;-76
2022/06/04 00:27:17;;;;;;;7.20;5.20;;;;;;;17.02;58.41;98992.42;105247;1271;73193;-75
2022/06/04 00:29:43;;;;;;;5.60;5.10;;;;;;;17.01;58.67;98993.29;105421;1269;62088;-74
2022/06/04 00:32:11;;;;;;;6.10;5.50;;;;;;;16.98;58.65;98995.52;105204;1269;62005;-75
2022/06/04 00:34:38;;;;;;;6.50;5.50;;;;;;;16.96;58.87;98996.81;105205;1271;77136;-74
2022/06/04 00:37:04;;;;;;;5.80;5.20;;;;;;;16.96;59.10;98993.80;105211;1271;68769;-74
2022/06/04 00:39:31;;;;;;;6.60;5.60;;;;;;;16.94;59.10;98991.05;105230;1270;74136;-74
2022/06/04 00:42:13;;;;;;;6.10;5.40;;;;;;;16.93;59.27;98993.86;104988;1271;62379;-74
2022/06/04 00:45:02;;;;;;;5.80;5.20;;;;;;;16.93;59.43;98988.67;105136;1271;312672;-73
2022/06/04 00:47:30;;;;;;;8.40;5.90;;;;;;;16.95;59.41;98987.23;105215;1271;75544;-73
2022/06/04 00:49:57;;;;;;;6.80;5.80;;;;;;;16.96;59.68;98978.64;105258;1270;69030;-75
2022/06/04 00:52:25;;;;;;;6.80;5.90;;;;;;;16.99;59.47;98979.69;105232;1271;73238;-74
2022/06/04 00:54:56;;;;;;;6.20;5.60;;;;;;;17.00;59.56;98976.90;105156;1271;62206;-74
2022/06/04 00:58:04;;;;;;;9.30;6.20;;;;;;;17.00;59.66;98972.39;105257;1271;62072;-76
2022/06/04 01:00:35;;;;;;;6.40;5.60;;;;;;;17.02;59.70;98974.38;105234;1271;76964;-76
2022/06/04 01:03:32;;;;;;;6.90;5.90;;;;;;;17.02;60.00;98972.70;105207;1271;69273;-74
2022/06/04 01:06:27;;;;;;;6.30;5.70;;;;;;;17.03;59.90;98969.23;105190;1269;74339;-74
2022/06/04 01:09:18;;;;;;;6.60;6.00;;;;;;;17.03;59.94;98970.48;105207;1271;62166;-74
2022/06/04 01:12:12;;;;;;;6.60;5.60;;;;;;;17.04;60.07;98963.71;105229;1271;62129;-74
2022/06/04 01:15:01;;;;;;;6.10;5.50;;;;;;;17.05;59.97;98962.17;104990;1271;76003;-75
2022/06/04 01:17:50;;;;;;;6.40;5.90;;;;;;;17.07;60.08;98957.54;105244;1270;69652;-74
2022/06/04 01:20:29;;;;;;;7.50;6.20;;;;;;;17.08;60.13;98951.45;105225;1271;73303;-74
2022/06/04 01:23:16;;;;;;;7.00;6.20;;;;;;;17.09;60.20;98947.50;105200;1271;62162;-74
2022/06/04 01:25:58;;;;;;;8.80;5.90;;;;;;;17.09;60.05;98951.07;105204;1271;62039;-74
2022/06/04 01:28:28;;;;;;;8.00;6.30;;;;;;;17.08;60.26;98952.23;105201;1271;76961;-74
2022/06/04 01:30:58;;;;;;;9.00;6.70;;;;;;;17.06;60.26;98947.90;105024;1271;67743;-74
2022/06/04 01:33:34;;;;;;;10.90;6.40;;;;;;;17.05;60.41;98945.14;105184;1271;74717;-75
2022/06/04 01:36:19;;;;;;;9.00;6.70;;;;;;;17.02;60.53;98940.95;105179;1271;62232;-74
2022/06/04 01:38:59;;;;;;;7.10;6.40;;;;;;;16.98;60.66;98939.33;105253;1271;62088;-74
2022/06/04 01:41:41;;;;;;;6.80;5.80;;;;;;;16.97;60.56;98934.29;105070;1269;77072;-74
2022/06/04 01:44:10;;;;;;;7.90;6.40;;;;;;;16.95;60.71;98929.75;105014;1271;69226;-74
2022/06/04 01:46:48;;;;;;;7.40;6.70;;;;;;;16.94;60.66;98924.85;105199;1271;73253;-74
2022/06/04 01:49:21;;;;;;;7.60;6.70;;;;;;;16.91;60.68;98926.04;105306;1270;62200;-74
2022/06/04 01:51:50;;;;;;;8.10;6.50;;;;;;;16.88;61.10;98929.14;105412;1271;62171;-74
2022/06/04 01:54:24;;;;;;;7.70;6.40;;;;;;;16.85;61.17;98926.00;105236;1270;75224;-74
2022/06/04 01:57:09;;;;;;;6.70;5.80;;;;;;;16.83;61.28;98923.34;105229;1271;68092;-74
2022/06/04 01:59:43;;;;;;;7.00;6.30;;;;;;;16.80;61.56;98930.46;105317;1270;73177;-74
2022/06/04 02:02:15;;;;;;;7.80;6.10;;;;;;;16.77;61.49;98924.06;105215;1271;62282;-74
2022/06/04 02:04:47;;;;;;;8.20;6.30;;;;;;;16.76;61.59;98921.85;105206;1271;62128;-74
2022/06/04 02:07:32;;;;;;;7.80;6.10;;;;;;;16.76;61.56;98923.10;105249;1270;76460;-75
2022/06/04 02:10:31;;;;;;;7.80;6.00;;;;;;;16.76;61.86;98923.59;105197;1271;69574;-74
2022/06/04 02:13:03;;;;;;;9.30;6.30;;;;;;;16.76;61.82;98921.61;104857;1274;73370;-74
2022/06/04 02:15:36;;;;;;;6.70;6.00;;;;;;;16.75;61.94;98915.79;104746;1274;62129;-74
2022/06/04 02:18:03;;;;;;;6.80;6.20;;;;;;;16.76;61.90;98913.54;104852;1274;62168;-75
2022/06/04 02:20:30;;;;;;;7.80;6.60;;;;;;;16.76;62.17;98915.02;104679;1274;75907;-75
2022/06/04 02:22:57;;;;;;;7.70;6.30;;;;;;;16.76;62.40;98918.41;104815;1274;70239;-75
2022/06/04 02:25:23;;;;;;;8.80;5.80;;;;;;;16.76;62.30;98912.89;104833;1274;73393;-75
2022/06/04 02:27:51;;;;;;;8.40;6.40;;;;;;;16.77;62.34;98910.83;104868;1274;62293;-76
2022/06/04 02:30:20;;;;;;;6.70;5.90;;;;;;;16.77;62.44;98905.79;104883;1274;62238;-75
2022/06/04 02:32:53;;;;;;;7.20;6.50;;;;;;;16.77;62.51;98909.02;104937;1274;75929;-75
2022/06/04 02:35:25;;;;;;;9.40;7.40;;;;;;;16.77;62.68;98904.33;104830;1274;70214;-74
2022/06/04 02:37:56;;;;;;;6.80;6.20;;;;;;;16.77;62.76;98901.97;104865;1274;72586;-74
2022/06/04 02:40:29;;;;;;;10.10;6.90;;;;;;;16.78;62.86;98897.48;104860;1274;62191;-74
2022/06/04 02:43:11;;;;;;;8.20;6.50;;;;;;;16.77;63.04;98893.38;104706;1277;62277;-74
2022/06/04 02:45:45;;;;;;;8.50;6.80;;;;;;;16.78;63.26;98893.89;104920;1274;77995;-76
2022/06/04 02:48:30;;;;;;;8.50;6.60;;;;;;;16.77;63.15;98892.86;104953;1274;69234;-74
2022/06/04 02:51:25;;;;;;;7.10;6.30;;;;;;;16.77;63.42;98894.67;105131;1271;74252;-75
2022/06/04 02:53:54;;;;;;;9.20;6.70;;;;;;;16.76;63.42;98888.23;105375;1271;62119;-75
2022/06/04 02:56:26;;;;;;;10.30;6.70;;;;;;;16.76;63.55;98888.96;105166;1271;62183;-75
2022/06/04 02:59:04;;;;;;;10.10;7.00;;;;;;;16.77;63.61;98888.22;105470;1271;76184;-75
2022/06/04 03:01:35;;;;;;;6.80;6.20;;;;;;;16.77;63.72;98891.26;105297;1271;71810;-74
2022/06/04 03:04:04;;;;;;;10.30;7.60;;;;;;;16.77;63.71;98895.21;105252;1270;74353;-75
2022/06/04 03:06:32;;;;;;;7.00;6.00;;;;;;;16.77;63.80;98894.33;105227;1270;62117;-76
2022/06/04 03:09:05;;;;;;;8.70;6.80;;;;;;;16.76;63.77;98892.80;105080;1271;63958;-76
2022/06/04 03:11:38;;;;;;;7.60;6.90;;;;;;;16.75;64.00;98891.94;105154;1274;74291;-75
2022/06/04 03:14:04;;;;;;;8.40;7.00;;;;;;;16.75;64.18;98893.05;105027;1271;69173;-75
2022/06/04 03:16:36;;;;;;;8.30;7.20;;;;;;;16.75;64.10;98895.38;105225;1269;62152;-75
2022/06/04 03:19:07;;;;;;;7.60;6.50;;;;;;;16.74;64.11;98893.09;105321;1270;62158;-74
2022/06/04 03:21:35;;;;;;;8.50;6.70;;;;;;;16.74;64.22;98901.02;105222;1271;62123;-74
2022/06/04 03:24:01;;;;;;;9.20;6.80;;;;;;;16.75;64.16;98899.36;105271;1270;76933;-75
2022/06/04 03:26:28;;;;;;;9.20;6.90;;;;;;;16.75;64.28;98903.10;105219;1271;62113;-75
2022/06/04 03:28:55;;;;;;;9.40;7.30;;;;;;;16.75;64.46;98899.67;105218;1271;61993;-74
2022/06/04 03:31:22;;;;;;;8.60;6.50;;;;;;;16.75;64.43;98906.53;105210;1271;62046;-74
2022/06/04 03:33:49;;;;;;;7.40;6.70;;;;;;;16.75;64.39;98899.50;105206;1271;62084;-75
2022/06/04 03:36:16;;;;;;;8.80;7.30;;;;;;;16.76;64.63;98899.91;105249;1271;74981;-78
2022/06/04 03:38:42;;;;;;;9.40;7.40;;;;;;;16.77;64.48;98904.73;105182;1271;68971;-75
2022/06/04 03:41:09;;;;;;;7.50;6.80;;;;;;;16.77;64.65;98897.53;105175;1271;62081;-76
2022/06/04 03:43:35;;;;;;;7.90;7.10;;;;;;;16.78;64.75;98902.13;105164;1271;62165;-75
2022/06/04 03:46:02;;;;;;;8.70;6.50;;;;;;;16.79;64.90;98902.04;105214;1270;62201;-76
2022/06/04 03:48:29;;;;;;;7.30;6.60;;;;;;;16.79;64.96;98904.73;105228;1271;76150;-75
2022/06/04 03:50:55;;;;;;;9.90;6.80;;;;;;;16.79;65.03;98903.48;105256;1271;69256;-74
2022/06/04 03:53:22;;;;;;;8.40;6.90;;;;;;;16.78;65.32;98904.79;105166;1271;62076;-75
2022/06/04 03:55:49;;;;;;;8.00;7.20;;;;;;;16.78;65.64;98907.10;105189;1271;62063;-75
2022/06/04 03:58:16;;;;;;;10.60;7.30;;;;;;;16.79;66.28;98906.52;105235;1271;62508;-76
2022/06/04 04:00:45;;;;;;;8.90;7.50;;;;;;;16.79;66.44;98901.83;105227;1271;62444;-75
2022/06/04 04:03:15;;;;;;;8.50;7.40;;;;;;;16.79;66.37;98900.40;105242;1271;69182;-75
2022/06/04 04:05:50;;;;;;;9.00;7.00;;;;;;;16.78;66.56;98902.81;105401;1271;74484;-75
2022/06/04 04:08:19;;;;;;;9.80;7.30;;;;;;;16.77;67.03;98904.67;105181;1271;62212;-75
2022/06/04 04:10:46;;;;;;;8.20;7.40;;;;;;;16.76;67.40;98903.68;105219;1271;62170;-76
2022/06/04 04:13:15;;;;;;;8.70;7.80;;;;;;;16.74;67.80;98907.26;105154;1271;77253;-76
2022/06/04 04:15:43;;;;;;;12.90;8.00;;;;;;;16.71;68.42;98918.68;105288;1271;70782;-76
2022/06/04 04:18:10;;;;;;;8.90;8.00;;;;;;;16.67;69.06;98921.94;105128;1270;74204;-76
2022/06/04 04:20:38;;;;;;;10.50;8.50;;;;;;;16.65;69.59;98921.44;105176;1271;62195;-76
2022/06/04 04:23:07;;;;;;;10.10;9.00;;;;;;;16.61;70.21;98922.85;105205;1269;62163;-75
2022/06/04 04:25:36;;;;;;;9.20;8.30;;;;;;;16.55;70.73;98923.43;105031;1270;77100;-76
2022/06/04 04:28:04;;;;;;;10.30;8.70;;;;;;;16.53;71.42;98918.42;105187;1271;69228;-75
2022/06/04 04:30:33;;;;;;;11.40;8.80;;;;;;;16.51;72.25;98928.13;105196;1271;73123;-75
2022/06/04 04:33:01;;;;;;;11.60;9.80;;;;;;;16.48;73.14;98934.52;105241;1271;62155;-75
2022/06/04 04:35:31;;;;;;;10.20;9.30;;;;;;;16.42;73.86;98932.83;105238;1271;62045;-74
2022/06/04 04:37:58;;;;;;;10.40;9.30;;;;;;;16.37;75.08;98945.67;104985;1272;74372;-75
2022/06/04 04:40:27;;;;;;;10.50;9.50;;;;;;;16.31;76.36;98953.99;105212;1271;70552;-75
2022/06/04 04:42:54;;;;;;;10.30;9.40;;;;;;;16.25;77.50;98951.61;105198;1271;73578;-74
2022/06/04 04:45:22;;;;;;;11.30;9.10;;;;;;;16.23;79.14;98955.95;105164;1271;62245;-74
2022/06/04 04:47:50;;;;;;;10.20;8.80;;;;;;;16.21;80.82;98957.48;105441;1271;61979;-71
2022/06/04 04:50:23;;;;;;;12.10;11.10;;;;;;;16.22;82.36;98954.44;105269;1271;77105;-72
2022/06/04 04:52:51;;;;;;;9.70;8.90;;;;;;;16.25;83.81;98946.29;105166;1271;69096;-72
2022/06/04 04:55:18;;;;;;;10.20;8.70;;;;;;;16.30;84.90;98943.50;105042;1271;73351;-73
2022/06/04 04:57:44;;;;;;;9.60;8.80;;;;;;;16.35;86.03;98946.06;105214;1271;62178;-72
2022/06/04 05:00:12;;;;;;;12.20;11.00;;;;;;;16.39;86.55;98949.61;105189;1271;62241;-72
2022/06/04 05:02:39;;;;;;;11.00;10.10;;;;;;;16.43;87.93;98957.13;104945;1271;75199;-73
2022/06/04 05:05:06;;;;;;;9.90;9.10;;;;;;;16.43;89.34;98959.51;105194;1270;62088;-73
2022/06/04 05:07:33;;;;;;;10.60;9.40;;;;;;;16.41;90.64;98970.23;105185;1270;73492;-71
2022/06/04 05:10:00;;;;;;;10.60;9.70;;;;;;;16.39;93.00;98973.64;105187;1271;62193;-72
2022/06/04 05:12:26;;;;;;;9.60;8.70;;;;;;;16.35;92.94;98974.78;105173;1271;61998;-72
2022/06/04 05:14:53;;;;;;;11.40;10.20;;;;;;;16.32;92.90;98974.46;105204;1271;75065;-72
2022/06/04 05:17:19;;;;;;;11.00;10.00;;;;;;;16.33;93.38;98974.44;105176;1271;62181;-70
2022/06/04 05:19:46;;;;;;;11.10;9.90;;;;;;;16.35;94.15;98977.81;105193;1271;63693;-72
2022/06/04 05:22:12;;;;;;;10.60;9.80;;;;;;;16.37;94.62;98976.94;105177;1271;62174;-72
2022/06/04 05:24:40;;;;;;;10.80;9.80;;;;;;;16.40;94.67;98979.48;105196;1271;62151;-72
2022/06/04 05:27:06;;;;;;;11.10;10.10;;;;;;;16.42;95.95;98984.88;104922;1271;76959;-72
2022/06/04 05:29:34;;;;;;;11.10;9.80;;;;;;;16.40;97.46;98983.48;105173;1271;62082;-72
2022/06/04 05:32:02;;;;;;;14.50;13.10;;;;;;;16.36;97.30;98982.91;105175;1271;74159;-72
2022/06/04 05:34:29;;;;;;;12.70;11.50;;;;;;;16.37;97.53;98977.41;105218;1269;62215;-72
2022/06/04 05:36:56;;;;;;;12.60;11.20;;;;;;;16.40;97.98;98983.30;105382;1271;62111;-73
2022/06/04 05:39:23;;;;;;;12.30;11.10;;;;;;;16.42;98.55;98982.69;104941;1272;62129;-72
2022/06/04 05:41:51;;;;;;;12.50;11.40;;;;;;;16.46;99.48;98991.33;105192;1271;68815;-73
2022/06/04 05:44:19;;;;;;;13.00;11.80;;;;;;;16.50;99.44;98992.38;105161;1271;73623;-73
2022/06/04 05:46:46;;;;;;;12.40;11.30;;;;;;;16.55;100.00;98993.05;105218;1269;62081;-73
2022/06/04 05:49:14;;;;;;;12.80;11.60;;;;;;;16.57;100.00;98996.58;104971;1271;62114;-73
2022/06/04 05:51:42;;;;;;;13.70;12.30;;;;;;;16.61;100.00;98992.86;104937;1271;76918;-72
2022/06/04 05:54:10;;;;;;;13.80;12.40;;;;;;;16.64;100.00;98999.72;105225;1271;70069;-71
2022/06/04 05:56:39;;;;;;;15.70;14.10;;;;;;;16.67;100.00;99005.77;105206;1271;74098;-71
2022/06/04 05:59:08;;;;;;;14.60;13.30;;;;;;;16.68;100.00;99006.52;105377;1269;62130;-71
2022/06/04 06:01:40;;;;;;;17.70;16.00;;;;;;;16.67;100.00;99005.20;105183;1271;61956;-72
2022/06/04 06:04:09;;;;;;;19.60;17.70;;;;;;;16.64;100.00;99005.61;105342;1271;77370;-72
2022/06/04 06:06:39;;;;;;;16.00;14.50;;;;;;;16.64;100.00;99010.65;105202;1271;69212;-72
2022/06/04 06:09:12;;;;;;;14.90;13.50;;;;;;;16.68;100.00;99009.76;105258;1271;72768;-72
2022/06/04 06:11:40;;;;;;;15.50;14.20;;;;;;;16.73;100.00;99009.70;105308;1271;62390;-71
2022/06/04 06:14:08;;;;;;;16.00;14.50;;;;;;;16.77;100.00;99015.23;105280;1271;62027;-72
2022/06/04 06:16:38;;;;;;;17.40;15.70;;;;;;;16.78;100.00;99015.66;105161;1271;76071;-73
2022/06/04 06:19:05;;;;;;;17.30;15.70;;;;;;;16.81;100.00;99014.52;105338;1271;69224;-72
2022/06/04 06:21:33;;;;;;;16.50;15.10;;;;;;;16.85;100.00;99016.15;105201;1271;73158;-73
2022/06/04 06:24:01;;;;;;;15.70;14.30;;;;;;;16.86;100.00;99013.35;105191;1270;62111;-72
2022/06/04 06:26:33;;;;;;;16.10;14.70;;;;;;;16.90;100.00;99011.36;105174;1271;62067;-73
2022/06/04 06:29:02;;;;;;;18.10;16.20;;;;;;;16.94;100.00;99008.63;105313;1270;76886;-72
2022/06/04 06:31:31;;;;;;;18.00;16.40;;;;;;;17.02;100.00;99006.11;105217;1271;69369;-71
2022/06/04 06:33:58;;;;;;;18.10;16.50;;;;;;;17.08;100.00;99000.48;105157;1271;73430;-71
2022/06/04 06:36:25;;;;;;;18.90;17.10;;;;;;;17.13;100.00;98999.52;105169;1271;62116;-70
2022/06/04 06:38:51;;;;;;;17.00;15.30;;;;;;;17.22;100.00;98996.73;105201;1271;62089;-70
2022/06/04 06:41:21;;;;;;;17.30;15.40;;;;;;;17.29;100.00;99000.34;105204;1270;74888;-70
2022/06/04 06:43:49;;;;;;;15.50;14.10;;;;;;;17.39;100.00;99000.96;104925;1273;69326;-71
2022/06/04 06:46:27;;;;;;;15.90;14.60;;;;;;;17.58;100.00;98991.88;105085;1272;73527;-71
2022/06/04 06:48:58;;;;;;;16.00;14.70;;;;;;;17.81;100.00;98986.17;105184;1271;62212;-71
2022/06/04 06:51:29;;;;;;;14.30;13.00;;;;;;;18.03;100.00;98980.45;105163;1271;62518;-69
2022/06/04 06:53:56;;;;;;;14.00;12.50;;;;;;;18.21;100.00;98975.80;105177;1271;77472;-71
2022/06/04 06:56:29;;;;;;;14.30;13.10;;;;;;;18.30;100.00;98967.59;105194;1271;68195;-71
2022/06/04 06:58:57;;;;;;;13.70;12.50;;;;;;;18.35;100.00;98963.41;104998;1274;72174;-71
2022/06/04 07:01:27;;;;;;;16.60;15.00;;;;;;;18.42;100.00;98963.87;105221;1271;62131;-72
2022/06/04 07:03:55;;;;;;;15.60;14.20;;;;;;;18.46;100.00;98963.27;105195;1271;61934;-72
2022/06/04 07:06:40;;;;;;;15.10;13.70;;;;;;;18.54;100.00;98959.23;105264;1271;77111;-71
2022/06/04 07:09:12;;;;;;;15.80;14.40;;;;;;;18.60;100.00;98957.02;105170;1271;69159;-73
2022/06/04 07:11:39;;;;;;;17.10;15.50;;;;;;;18.67;100.00;98957.23;105198;1271;73627;-72
2022/06/04 07:14:05;;;;;;;17.20;15.60;;;;;;;18.74;100.00;98961.75;105158;1271;62312;-72
2022/06/04 07:16:32;;;;;;;16.90;15.30;;;;;;;18.77;100.00;98973.29;104945;1274;62184;-72
2022/06/04 07:19:00;;;;;;;17.20;15.50;;;;;;;18.90;100.00;98982.20;105185;1271;62062;-72
2022/06/04 07:21:27;;;;;;;17.10;15.40;;;;;;;19.11;100.00;98986.95;105156;1271;69810;-71
2022/06/04 07:23:54;;;;;;;16.40;15.00;;;;;;;19.37;100.00;98991.83;105169;1270;73132;-72
2022/06/04 07:26:22;;;;;;;16.60;15.10;;;;;;;19.64;100.00;98989.98;105190;1268;62119;-72
2022/06/04 07:28:49;;;;;;;16.40;15.00;;;;;;;19.87;100.00;98989.53;105224;1268;62085;-70
2022/06/04 07:31:16;;;;;;;15.80;14.40;;;;;;;20.02;100.00;98995.85;105264;1269;75335;-70
2022/06/04 07:33:45;;;;;;;15.20;13.90;;;;;;;20.16;99.46;99001.76;105209;1268;68297;-70
2022/06/04 07:36:20;;;;;;;15.70;14.30;;;;;;;20.36;97.64;99003.27;105306;1271;73105;-69
2022/06/04 07:38:47;;;;;;;15.30;13.80;;;;;;;20.60;96.76;98999.27;105290;1268;62207;-69
2022/06/04 07:41:21;;;;;;;15.00;13.60;;;;;;;20.87;95.33;98998.66;105228;1268;61997;-69
2022/06/04 07:43:48;;;;;;;14.70;13.50;;;;;;;21.05;94.15;99003.49;105211;1268;74168;-70
2022/06/04 07:46:16;;;;;;;15.00;13.60;;;;;;;21.07;92.93;99007.80;105236;1268;70380;-70
2022/06/04 07:48:43;;;;;;;13.50;12.30;;;;;;;21.12;92.65;99007.42;105217;1268;73639;-69
2022/06/04 07:51:10;;;;;;;15.40;14.10;;;;;;;21.15;92.64;99007.31;105233;1273;62318;-70
2022/06/04 07:53:37;;;;;;;14.10;12.90;;;;;;;21.17;92.61;99009.05;105237;1268;62606;-71
2022/06/04 07:56:12;;;;;;;15.00;13.90;;;;;;;21.17;91.84;99010.80;105222;1268;77175;-71
2022/06/04 07:58:39;;;;;;;14.20;12.90;;;;;;;21.06;90.98;99015.17;105279;1268;68643;-72
2022/06/04 08:01:08;;;;;;;14.30;13.10;;;;;;;20.96;90.64;99016.59;105262;1268;73481;-72
2022/06/04 08:03:36;;;;;;;15.10;13.80;;;;;;;20.87;90.11;99014.91;105461;1268;62072;-72
2022/06/04 08:06:04;;;;;;;14.60;13.40;;;;;;;20.77;89.89;99013.30;105262;1268;62273;-72
2022/06/04 08:08:33;;;;;;;15.70;14.40;;;;;;;20.62;89.09;99016.33;105230;1268;75933;-71
2022/06/04 08:11:00;;;;;;;15.40;14.20;;;;;;;20.53;89.68;99017.84;105220;1268;69083;-72
2022/06/04 08:13:30;;;;;;;15.60;14.30;;;;;;;20.54;90.11;99016.88;105210;1268;74100;-71
2022/06/04 08:16:00;;;;;;;16.60;15.20;;;;;;;20.58;90.00;99015.85;105043;1268;62106;-72
2022/06/04 08:18:27;;;;;;;16.20;14.80;;;;;;;20.62;89.39;99012.61;105249;1268;62056;-69
2022/06/04 08:20:54;;;;;;;16.30;14.80;;;;;;;20.64;89.26;99013.42;105215;1268;76879;-72
2022/06/04 08:23:21;;;;;;;15.60;14.10;;;;;;;20.63;88.78;99014.42;105205;1268;70350;-71
2022/06/04 08:25:50;;;;;;;17.80;16.10;;;;;;;20.61;88.69;99015.13;105224;1268;73191;-71
2022/06/04 08:28:18;;;;;;;15.50;14.10;;;;;;;20.61;88.94;99017.17;105295;1268;62114;-71
2022/06/04 08:30:45;;;;;;;16.40;14.70;;;;;;;20.61;89.20;99009.04;105210;1268;62224;-71
2022/06/04 08:33:12;;;;;;;15.30;13.90;;;;;;;20.65;89.04;99008.64;105210;1268;77222;-71
2022/06/04 08:35:39;;;;;;;13.70;12.50;;;;;;;20.68;88.52;99009.40;105286;1268;69934;-71
2022/06/04 08:38:06;;;;;;;14.00;12.70;;;;;;;20.75;88.16;99012.21;105269;1268;62042;-72
2022/06/04 08:40:36;;;;;;;14.00;12.60;;;;;;;20.87;87.47;99011.86;105070;1271;62084;-72
2022/06/04 08:43:18;;;;;;;15.20;13.80;;;;;;;20.95;87.59;99017.86;105050;1271;62072;-72
2022/06/04 08:45:44;;;;;;;15.30;13.90;;;;;;;21.06;87.33;99019.85;105228;1268;76985;-71
2022/06/04 08:48:16;;;;;;;15.60;14.20;;;;;;;21.17;86.12;99022.10;105226;1268;62085;-72
2022/06/04 08:50:44;;;;;;;15.10;13.70;;;;;;;21.23;85.56;99021.38;105012;1273;73338;-72
2022/06/04 08:53:22;;;;;;;14.70;13.40;;;;;;;21.31;85.40;99016.05;105285;1268;62029;-72
2022/06/04 08:58:52;;;;;;;15.50;14.00;;;;;;;21.49;84.48;99016.73;105212;1267;77191;-71
2022/06/04 09:01:26;;;;;;;15.40;13.70;;;;;;;21.49;84.11;99010.98;104948;1269;69142;-71
2022/06/04 09:04:23;;;;;;;15.50;13.60;;;;;;;21.50;84.06;99011.34;105200;1268;74909;-72
2022/06/04 09:07:16;;;;;;;14.90;13.60;;;;;;;21.48;83.41;99012.01;105204;1268;62279;-72
2022/06/04 09:09:49;;;;;;;14.40;13.00;;;;;;;21.43;83.00;99011.80;104789;1277;62006;-71
2022/06/04 09:12:18;;;;;;;16.70;13.60;;;;;;;21.42;82.99;99016.45;104511;1278;75332;-72
2022/06/04 09:15:01;;;;;;;15.10;12.70;;;;;;;21.40;82.84;99016.10;104801;1278;68875;-71
2022/06/04 09:17:40;;;;;;;14.60;13.30;;;;;;;21.39;82.59;99016.15;104790;1278;74370;-72
2022/06/04 09:20:46;;;;;;;14.20;12.90;;;;;;;21.39;82.65;99018.41;104772;1277;62543;-72
2022/06/04 09:23:28;;;;;;;12.00;11.00;;;;;;;21.40;81.52;99018.27;104865;1277;62130;-71
2022/06/04 09:26:06;;;;;;;12.80;11.60;;;;;;;21.36;81.07;99025.20;104813;1277;77028;-71
2022/06/04 09:28:45;;;;;;;13.80;11.80;;;;;;;21.39;81.41;99022.20;104817;1277;70584;-71
2022/06/04 09:31:30;;;;;;;14.10;12.80;;;;;;;21.44;81.38;99020.92;104801;1277;73218;-71
2022/06/04 09:34:02;;;;;;;13.80;12.50;;;;;;;21.57;81.16;99016.57;104769;1277;62132;-72
2022/06/04 09:36:33;;;;;;;14.00;12.70;;;;;;;21.72;80.07;99015.95;104775;1278;62232;-72
2022/06/04 09:39:17;;;;;;;14.70;13.00;;;;;;;21.96;79.94;99013.26;104758;1278;76555;-70
2022/06/04 09:42:09;;;;;;;15.20;13.90;;;;;;;22.15;78.63;99013.59;104785;1278;70471;-71
2022/06/04 09:44:47;;;;;;;14.00;12.60;;;;;;;22.33;78.03;99012.99;104334;1281;74433;-70
2022/06/04 09:47:32;;;;;;;15.50;14.10;;;;;;;22.50;77.91;99012.66;104486;1278;62136;-72
2022/06/04 09:50:02;;;;;;;16.30;14.90;;;;;;;22.78;77.88;99010.13;104779;1277;62687;-72
2022/06/04 09:52:40;;;;;;;20.00;18.00;;;;;;;23.11;77.61;99017.48;104746;1278;76995;-72
2022/06/04 09:55:20;;;;;;;23.20;21.00;;;;;;;23.36;77.14;99020.42;104762;1277;69284;-71
2022/06/04 09:57:58;;;;;;;;;;;;;;;23.51;76.99;99024.23;104534;1277;73662;-72
2022/06/04 10:00:31;;;;;;;15.90;14.30;;;;;;;23.73;76.81;99021.82;104819;1277;62129;-71
2022/06/04 10:03:14;;;;;;;17.60;13.00;;;;;;;23.97;74.97;99021.29;104544;1277;62287;-72
2022/06/04 10:06:08;;;;;;;15.00;13.50;;;;;;;24.13;73.56;99023.05;104789;1277;76915;-70
2022/06/04 10:11:24;;;;;;;13.90;12.60;;;;;;;24.72;73.61;99024.92;104220;1283;73326;-72
2022/06/04 10:13:55;;;;;;;12.90;11.60;;;;;;;24.98;71.73;99024.36;104220;1284;62158;-71
2022/06/04 10:16:45;;;;;;;13.50;12.40;;;;;;;25.08;71.06;99026.14;104237;1283;62171;-72
2022/06/04 10:19:21;;;;;;;13.00;11.90;;;;;;;25.20;70.54;99023.85;104234;1283;75011;-72
2022/06/04 10:22:01;;;;;;;12.10;11.10;;;;;;;25.33;69.48;99022.73;104387;1277;69238;-72
2022/06/04 10:24:30;;;;;;;13.70;12.40;;;;;;;25.47;68.59;99023.61;104805;1277;73237;-71
2022/06/04 10:27:03;;;;;;;12.60;11.50;;;;;;;25.57;68.01;99026.36;104504;1278;62104;-70
2022/06/04 10:30:07;;;;;;;13.30;12.20;;;;;;;25.67;67.60;99023.37;104814;1277;62350;-72
2022/06/04 10:32:51;;;;;;;13.50;12.30;;;;;;;25.82;68.03;99016.67;104757;1277;75067;-71
2022/06/04 10:35:48;;;;;;;13.00;12.00;;;;;;;25.86;66.68;99006.85;104801;1277;70233;-72
2022/06/04 10:38:27;;;;;;;12.50;11.50;;;;;;;25.88;67.20;99004.27;104797;1277;71304;-71
2022/06/04 10:41:23;;;;;;;14.20;13.00;;;;;;;26.10;66.51;99008.76;104815;1276;62179;-71
2022/06/04 10:44:01;;;;;;;11.80;10.90;;;;;;;26.23;66.15;99009.26;104578;1278;63774;-70
2022/06/04 10:46:54;;;;;;;14.20;13.20;;;;;;;26.42;66.53;99007.48;105216;1268;76197;-72
2022/06/04 10:49:56;;;;;;;14.50;13.30;;;;;;;26.74;65.15;99006.28;104781;1276;70233;-72
2022/06/04 10:52:32;;;;;;;16.00;14.70;;;;;;;26.56;64.38;99005.45;104464;1280;73502;-72
2022/06/04 10:55:12;;;;;;;15.30;14.00;;;;;;;26.14;63.57;99006.20;103975;1281;62316;-72
2022/06/04 10:58:04;;;;;;;14.60;13.40;;;;;;;25.63;64.03;99010.91;104405;1280;60825;-71
2022/06/04 11:00:50;;;;;;;13.70;12.70;;;;;;;25.23;64.98;99013.00;104356;1281;76050;-71
2022/06/04 11:03:40;;;;;;;17.90;16.40;;;;;;;24.93;65.49;99011.35;104091;1281;69366;-72
2022/06/04 11:06:15;;;;;;;15.40;14.10;;;;;;;24.60;66.06;99021.27;104327;1281;73355;-72
2022/06/04 11:08:57;;;;;;;15.10;13.80;;;;;;;24.32;66.87;99020.91;104383;1280;62102;-72
2022/06/04 11:11:32;;;;;;;16.10;14.50;;;;;;;24.16;67.46;99018.23;104322;1281;62216;-74
2022/06/04 11:14:09;;;;;;;14.60;13.30;;;;;;;24.07;68.13;99022.93;104409;1280;75953;-72
2022/06/04 11:16:52;;;;;;;15.20;14.00;;;;;;;24.03;69.14;99017.23;104359;1281;70734;-72
2022/06/04 11:19:33;;;;;;;17.10;15.80;;;;;;;24.08;68.59;99018.27;104074;1281;72421;-72
2022/06/04 11:22:02;;;;;;;17.10;15.60;;;;;;;24.15;69.45;99016.27;104537;1281;62101;-72
2022/06/04 11:24:48;;;;;;;14.50;13.20;;;;;;;24.30;69.25;99021.65;104335;1281;62128;-71
2022/06/04 11:27:22;;;;;;;14.90;13.60;;;;;;;24.52;70.98;99017.48;104834;1271;76010;-72
2022/06/04 11:29:51;;;;;;;14.10;12.90;;;;;;;24.87;70.04;99017.11;105213;1270;70272;-71
2022/06/04 11:32:26;;;;;;;15.50;14.10;;;;;;;25.10;69.51;99017.36;105240;1271;73271;-71
2022/06/04 11:35:03;;;;;;;15.50;14.40;;;;;;;25.26;68.51;99018.57;105196;1271;62156;-72
2022/06/04 11:38:00;;;;;;;15.90;14.70;;;;;;;25.14;67.74;99020.46;105209;1271;62080;-72
2022/06/04 11:40:54;;;;;;;14.20;12.90;;;;;;;24.97;67.52;99026.61;105182;1271;76979;-71
2022/06/04 11:43:58;;;;;;;13.80;12.70;;;;;;;24.79;67.38;99028.58;105236;1271;70614;-71
2022/06/04 11:46:41;;;;;;;13.60;12.50;;;;;;;24.69;67.05;99027.08;105199;1271;74020;-73
2022/06/04 11:49:35;;;;;;;13.90;12.60;;;;;;;24.63;67.65;99025.83;105200;1271;62107;-72
2022/06/04 11:52:17;;;;;;;13.80;12.70;;;;;;;24.80;67.91;99026.20;105222;1271;62099;-72
2022/06/04 11:54:51;;;;;;;13.60;12.40;;;;;;;24.98;67.35;99021.00;105248;1267;77012;-71